createdAt,value
2019-02-18T00:01:16.384Z,6.80
2019-02-18T00:03:46.106Z,6.80
2019-02-18T00:06:16.355Z,6.80
2019-02-18T00:08:46.166Z,6.80
2019-02-18T00:11:18.130Z,6.80
2019-02-18T00:13:47.840Z,6.80
2019-02-18T00:16:17.491Z,6.70
2019-02-18T00:18:47.214Z,6.70
2019-02-18T00:21:16.991Z,6.70
2019-02-18T00:23:46.699Z,6.70
2019-02-18T00:26:16.370Z,6.70
2019-02-18T00:28:46.067Z,6.70
2019-02-18T00:31:15.762Z,6.70
2019-02-18T00:33:45.470Z,6.80
2019-02-18T00:36:15.181Z,6.80
2019-02-18T00:38:45.965Z,6.80
2019-02-18T00:41:15.711Z,6.90
2019-02-18T00:43:45.386Z,6.90
2019-02-18T00:46:15.055Z,6.90
2019-02-18T00:48:44.759Z,6.90
2019-02-18T00:51:14.489Z,7.00
2019-02-18T00:53:44.160Z,7.00
2019-02-18T00:56:13.892Z,7.00
2019-02-18T00:58:44.140Z,7.00
2019-02-18T01:01:13.802Z,7.00
2019-02-18T01:03:43.515Z,7.10
2019-02-18T01:06:13.242Z,7.10
2019-02-18T01:08:42.946Z,7.10
2019-02-18T01:11:12.667Z,7.10
2019-02-18T01:13:42.388Z,7.10
2019-02-18T01:16:12.063Z,7.10
2019-02-18T01:18:41.815Z,7.10
2019-02-18T01:21:11.610Z,7.10
2019-02-18T01:23:41.295Z,7.00
2019-02-18T01:26:11.026Z,7.00
2019-02-18T01:28:40.718Z,7.00
2019-02-18T01:31:10.587Z,7.00
2019-02-18T01:33:40.233Z,7.00
2019-02-18T01:36:09.896Z,7.00
2019-02-18T01:38:39.581Z,7.00
2019-02-18T01:41:09.252Z,7.00
2019-02-18T01:43:39.005Z,7.00
2019-02-18T01:46:08.717Z,7.00
2019-02-18T01:48:38.427Z,7.00
2019-02-18T01:51:08.169Z,7.00
2019-02-18T01:53:37.828Z,7.00
2019-02-18T01:56:07.518Z,7.00
2019-02-18T01:58:37.240Z,6.90
2019-02-18T02:01:06.978Z,6.90
2019-02-18T02:03:36.704Z,6.90
2019-02-18T02:06:06.359Z,6.90
2019-02-18T02:08:36.079Z,6.90
2019-02-18T02:11:05.758Z,6.90
2019-02-18T02:13:36.787Z,6.90
2019-02-18T02:16:11.489Z,6.90
2019-02-18T02:18:41.157Z,6.90
2019-02-18T02:21:10.856Z,6.80
2019-02-18T02:23:40.581Z,6.80
2019-02-18T02:26:10.269Z,6.80
2019-02-18T02:28:39.935Z,6.80
2019-02-18T02:31:09.916Z,6.80
2019-02-18T02:33:39.605Z,6.80
2019-02-18T02:36:09.291Z,6.80
2019-02-18T02:38:39.017Z,6.80
2019-02-18T02:41:08.654Z,6.80
2019-02-18T02:43:38.378Z,6.80
2019-02-18T02:46:08.096Z,6.80
2019-02-18T02:48:37.795Z,6.80
2019-02-18T02:51:07.531Z,6.80
2019-02-18T02:53:37.206Z,6.80
2019-02-18T02:56:06.878Z,6.80
2019-02-18T02:58:36.624Z,6.80
2019-02-18T03:01:06.306Z,6.80
2019-02-18T03:03:35.959Z,6.80
2019-02-18T03:06:05.674Z,6.80
2019-02-18T03:08:35.354Z,6.80
2019-02-18T03:11:05.059Z,6.80
2019-02-18T03:13:34.796Z,6.80
2019-02-18T03:16:04.500Z,6.80
2019-02-18T03:18:34.201Z,6.80
2019-02-18T03:21:03.941Z,6.80
2019-02-18T03:23:33.727Z,6.80
2019-02-18T03:26:03.390Z,6.80
2019-02-18T03:29:07.882Z,6.70
2019-02-18T03:31:37.620Z,6.70
2019-02-18T03:34:17.816Z,6.70
2019-02-18T03:36:47.494Z,6.70
2019-02-18T03:39:17.212Z,6.70
2019-02-18T03:41:46.935Z,6.70
2019-02-18T03:44:16.587Z,6.80
2019-02-18T03:46:46.344Z,6.80
2019-02-18T03:49:16.029Z,6.80
2019-02-18T03:51:45.710Z,6.80
2019-02-18T03:54:15.469Z,6.80
2019-02-18T03:56:45.673Z,6.80
2019-02-18T03:59:15.947Z,6.80
2019-02-18T04:01:45.640Z,6.80
2019-02-18T04:04:15.314Z,6.80
2019-02-18T04:06:45.075Z,6.80
2019-02-18T04:09:14.746Z,6.80
2019-02-18T04:11:44.427Z,6.80
2019-02-18T04:14:14.161Z,6.80
2019-02-18T04:16:43.835Z,6.80
2019-02-18T04:19:13.501Z,6.80
2019-02-18T04:21:43.213Z,6.80
2019-02-18T04:24:12.944Z,6.80
2019-02-18T04:26:42.696Z,6.70
2019-02-18T04:29:12.369Z,6.80
2019-02-18T04:31:42.120Z,6.70
2019-02-18T04:34:11.785Z,6.70
2019-02-18T04:36:41.478Z,6.70
2019-02-18T04:39:11.577Z,6.70
2019-02-18T04:41:41.307Z,6.80
2019-02-18T04:44:10.973Z,6.70
2019-02-18T04:46:40.721Z,6.70
2019-02-18T04:49:10.480Z,6.70
2019-02-18T04:51:40.309Z,6.70
2019-02-18T04:54:09.981Z,6.70
2019-02-18T04:56:41.415Z,6.70
2019-02-18T04:59:11.123Z,6.70
2019-02-18T05:01:40.894Z,6.70
2019-02-18T05:04:10.566Z,6.70
2019-02-18T05:06:40.246Z,6.60
2019-02-18T05:09:09.909Z,6.60
2019-02-18T05:11:39.692Z,6.60
2019-02-18T05:14:09.305Z,6.60
2019-02-18T05:16:38.983Z,6.60
2019-02-18T05:19:08.659Z,6.60
2019-02-18T05:21:38.397Z,6.60
2019-02-18T05:24:08.204Z,6.60
2019-02-18T05:26:37.854Z,6.50
2019-02-18T05:29:07.747Z,6.50
2019-02-18T05:31:37.383Z,6.50
2019-02-18T05:34:07.066Z,6.50
2019-02-18T05:36:36.797Z,6.50
2019-02-18T05:39:17.339Z,6.50
2019-02-18T05:41:39.325Z,6.50
2019-02-18T05:44:09.633Z,6.50
2019-02-18T05:46:39.316Z,6.50
2019-02-18T05:49:09.060Z,6.50
2019-02-18T05:51:38.703Z,6.50
2019-02-18T05:54:08.368Z,6.50
2019-02-18T05:56:38.067Z,6.50
2019-02-18T05:59:07.736Z,6.50
2019-02-18T06:01:37.387Z,6.50
2019-02-18T06:04:07.071Z,6.60
2019-02-18T06:06:36.829Z,6.60
2019-02-18T06:09:06.976Z,6.60
2019-02-18T06:11:36.655Z,6.60
2019-02-18T06:14:06.363Z,6.60
2019-02-18T06:16:36.741Z,6.70
2019-02-18T06:19:06.483Z,6.70
2019-02-18T06:21:36.209Z,6.80
2019-02-18T06:24:05.900Z,6.80
2019-02-18T06:26:35.558Z,6.90
2019-02-18T06:29:05.685Z,6.90
2019-02-18T06:31:35.375Z,7.00
2019-02-18T06:34:05.076Z,7.00
2019-02-18T06:36:34.785Z,7.10
2019-02-18T06:39:05.883Z,7.10
2019-02-18T06:41:35.602Z,7.20
2019-02-18T06:44:05.740Z,7.30
2019-02-18T06:46:50.828Z,7.40
2019-02-18T06:49:23.129Z,7.40
2019-02-18T06:51:52.901Z,7.50
2019-02-18T06:54:22.618Z,7.50
2019-02-18T06:57:09.820Z,7.60
2019-02-18T06:59:43.618Z,7.60
2019-02-18T07:02:34.251Z,7.60
2019-02-18T07:05:22.865Z,7.70
2019-02-18T07:08:17.629Z,7.80
2019-02-18T07:11:15.241Z,7.80
2019-02-18T07:13:45.048Z,7.90
2019-02-18T07:16:14.758Z,8.00
2019-02-18T07:18:44.394Z,8.00
2019-02-18T07:21:14.121Z,8.10
2019-02-18T07:23:43.779Z,8.20
2019-02-18T07:26:13.461Z,8.30
2019-02-18T07:28:43.210Z,8.40
2019-02-18T07:31:12.904Z,8.50
2019-02-18T07:33:42.691Z,8.50
2019-02-18T07:36:13.073Z,8.60
2019-02-18T07:39:00.668Z,8.70
2019-02-18T07:41:48.697Z,8.80
2019-02-18T07:44:18.458Z,8.90
2019-02-18T07:46:48.103Z,9.00
2019-02-18T07:49:17.791Z,9.10
2019-02-18T07:51:47.562Z,9.10
2019-02-18T07:54:17.264Z,9.20
2019-02-18T07:56:46.962Z,9.30
2019-02-18T07:59:16.673Z,9.40
2019-02-18T08:01:46.361Z,9.40
2019-02-18T08:04:16.024Z,9.40
2019-02-18T08:06:45.779Z,9.50
2019-02-18T08:09:15.463Z,9.50
2019-02-18T08:11:45.151Z,9.60
2019-02-18T08:14:14.836Z,9.70
2019-02-18T08:16:44.944Z,9.80
2019-02-18T08:19:15.647Z,9.90
2019-02-18T08:21:45.537Z,10.10
2019-02-18T08:24:15.814Z,10.20
2019-02-18T08:26:45.564Z,10.30
2019-02-18T08:29:17.821Z,10.30
2019-02-18T08:31:47.512Z,10.30
2019-02-18T08:34:17.560Z,10.30
2019-02-18T08:36:47.752Z,10.30
2019-02-18T08:39:17.418Z,10.50
2019-02-18T08:41:47.119Z,10.60
2019-02-18T08:44:16.840Z,10.80
2019-02-18T08:46:47.134Z,11.00
2019-02-18T08:49:16.843Z,11.10
2019-02-18T08:51:46.524Z,11.20
2019-02-18T08:54:16.252Z,11.30
2019-02-18T08:56:46.003Z,11.40
2019-02-18T08:59:15.727Z,11.40
2019-02-18T09:01:45.435Z,11.60
2019-02-18T09:04:15.163Z,11.70
2019-02-18T09:06:44.904Z,11.80
2019-02-18T09:09:14.551Z,11.80
2019-02-18T09:11:44.345Z,11.60
2019-02-18T09:14:14.075Z,11.60
2019-02-18T09:16:43.768Z,11.50
2019-02-18T09:19:13.555Z,11.50
2019-02-18T09:21:43.287Z,11.60
2019-02-18T09:24:17.978Z,11.70
2019-02-18T09:26:47.731Z,11.90
2019-02-18T09:29:17.492Z,12.00
2019-02-18T09:31:47.186Z,12.20
2019-02-18T09:34:16.898Z,12.20
2019-02-18T09:36:47.210Z,12.20
2019-02-18T09:39:30.010Z,12.10
2019-02-18T09:41:51.824Z,11.90
2019-02-18T09:44:21.499Z,11.70
2019-02-18T09:46:51.224Z,11.60
2019-02-18T09:49:20.919Z,11.60
2019-02-18T09:51:50.645Z,11.60
2019-02-18T09:54:20.391Z,11.60
2019-02-18T09:56:50.129Z,11.60
2019-02-18T09:59:19.890Z,11.70
2019-02-18T10:01:49.550Z,11.70
2019-02-18T10:04:19.257Z,11.80
2019-02-18T10:06:48.994Z,11.80
2019-02-18T10:09:18.677Z,11.80
2019-02-18T10:11:48.343Z,11.70
2019-02-18T10:14:18.021Z,11.60
2019-02-18T10:16:47.693Z,11.50
2019-02-18T10:19:17.418Z,11.50
2019-02-18T10:21:47.150Z,11.60
2019-02-18T10:24:16.826Z,11.80
2019-02-18T10:26:46.575Z,12.00
2019-02-18T10:29:16.273Z,12.30
2019-02-18T10:31:45.969Z,12.70
2019-02-18T10:34:15.706Z,13.00
2019-02-18T10:36:45.457Z,13.30
2019-02-18T10:39:15.153Z,13.60
2019-02-18T10:41:44.814Z,13.80
2019-02-18T10:44:14.587Z,13.80
2019-02-18T10:46:44.251Z,13.80
2019-02-18T10:49:19.843Z,13.50
2019-02-18T10:51:45.291Z,13.40
2019-02-18T10:54:14.982Z,13.30
2019-02-18T10:56:44.680Z,13.30
2019-02-18T10:59:14.379Z,13.30
2019-02-18T11:01:44.105Z,13.30
2019-02-18T11:04:13.778Z,13.30
2019-02-18T11:06:43.446Z,13.30
2019-02-18T11:09:13.156Z,13.30
2019-02-18T11:11:42.826Z,13.20
2019-02-18T11:14:12.583Z,13.20
2019-02-18T11:16:42.311Z,13.30
2019-02-18T11:19:12.382Z,13.40
2019-02-18T11:21:42.068Z,13.30
2019-02-18T11:24:11.895Z,13.30
2019-02-18T11:26:41.596Z,13.30
2019-02-18T11:29:12.116Z,13.30
2019-02-18T11:31:41.841Z,13.30
2019-02-18T11:34:13.330Z,13.40
2019-02-18T11:36:43.002Z,13.40
2019-02-18T11:39:13.835Z,13.40
2019-02-18T11:41:43.924Z,13.40
2019-02-18T11:44:13.816Z,13.40
2019-02-18T11:46:44.080Z,13.40
2019-02-18T11:49:13.864Z,13.40
2019-02-18T11:51:43.594Z,13.50
2019-02-18T11:54:14.182Z,13.40
2019-02-18T11:56:43.842Z,13.30
2019-02-18T11:59:23.697Z,13.20
2019-02-18T12:01:45.747Z,13.20
2019-02-18T12:04:18.475Z,13.20
2019-02-18T12:06:48.204Z,13.30
2019-02-18T12:09:18.033Z,13.50
2019-02-18T12:11:47.727Z,13.70
2019-02-18T12:14:17.459Z,13.80
2019-02-18T12:16:48.082Z,14.00
2019-02-18T12:19:18.223Z,14.00
2019-02-18T12:21:47.881Z,14.10
2019-02-18T12:24:18.260Z,14.10
2019-02-18T12:26:47.935Z,14.00
2019-02-18T12:29:26.253Z,13.70
2019-02-18T12:31:49.129Z,13.60
2019-02-18T12:34:18.812Z,13.60
2019-02-18T12:36:48.478Z,13.50
2019-02-18T12:39:18.263Z,13.60
2019-02-18T12:41:48.995Z,13.60
2019-02-18T12:44:19.062Z,13.70
2019-02-18T12:46:48.735Z,13.80
2019-02-18T12:49:18.599Z,13.70
2019-02-18T12:51:48.697Z,13.60
2019-02-18T12:54:20.767Z,13.50
2019-02-18T12:56:50.455Z,13.20
2019-02-18T12:59:22.871Z,13.00
2019-02-18T13:01:52.599Z,12.80
2019-02-18T13:04:22.271Z,12.60
2019-02-18T13:06:52.438Z,12.70
2019-02-18T13:09:22.154Z,12.60
2019-02-18T13:11:58.757Z,12.50
2019-02-18T13:14:23.283Z,12.40
2019-02-18T13:16:56.171Z,12.30
2019-02-18T13:19:25.840Z,12.40
2019-02-18T13:21:55.525Z,12.30
2019-02-18T13:24:25.233Z,12.20
2019-02-18T13:26:54.960Z,12.20
2019-02-18T13:29:24.919Z,12.20
2019-02-18T13:31:56.354Z,12.20
2019-02-18T13:34:26.006Z,12.30
2019-02-18T13:36:58.107Z,12.40
2019-02-18T13:39:27.772Z,12.50
2019-02-18T13:41:57.447Z,12.50
2019-02-18T13:44:27.163Z,12.50
2019-02-18T13:46:56.846Z,12.40
2019-02-18T13:49:26.529Z,12.30
2019-02-18T13:51:56.871Z,12.40
2019-02-18T13:54:26.773Z,12.40
2019-02-18T13:56:56.479Z,12.50
2019-02-18T13:59:26.194Z,12.50
2019-02-18T14:01:55.878Z,12.50
2019-02-18T14:04:25.582Z,12.50
2019-02-18T14:06:55.900Z,12.50
2019-02-18T14:09:25.636Z,12.60
2019-02-18T14:11:55.283Z,12.60
2019-02-18T14:14:25.099Z,12.50
2019-02-18T14:16:54.806Z,12.40
2019-02-18T14:19:24.655Z,12.30
2019-02-18T14:21:55.451Z,12.10
2019-02-18T14:24:27.062Z,12.00
2019-02-18T14:26:56.819Z,11.80
2019-02-18T14:29:26.659Z,11.60
2019-02-18T14:31:56.336Z,11.50
2019-02-18T14:34:26.566Z,11.30
2019-02-18T14:36:56.518Z,11.30
2019-02-18T14:39:27.851Z,11.10
2019-02-18T14:41:57.583Z,10.90
2019-02-18T14:44:27.431Z,10.80
2019-02-18T14:46:57.117Z,10.70
2019-02-18T14:49:26.911Z,10.60
2019-02-18T14:51:56.596Z,10.40
2019-02-18T14:54:27.881Z,10.40
2019-02-18T14:56:58.761Z,10.30
2019-02-18T14:59:28.479Z,10.10
2019-02-18T15:01:59.184Z,10.00
2019-02-18T15:04:30.301Z,10.00
2019-02-18T15:07:00.458Z,9.90
2019-02-18T15:09:30.214Z,9.80
2019-02-18T15:11:59.919Z,9.60
2019-02-18T15:14:29.677Z,9.50
2019-02-18T15:16:59.802Z,9.50
2019-02-18T15:19:29.609Z,9.40
2019-02-18T15:21:59.288Z,9.40
2019-02-18T15:24:29.045Z,9.30
2019-02-18T15:26:58.751Z,9.10
2019-02-18T15:29:30.765Z,9.00
2019-02-18T15:32:00.509Z,8.80
2019-02-18T15:34:30.286Z,8.70
2019-02-18T15:36:59.975Z,8.60
2019-02-18T15:39:29.722Z,8.50
2019-02-18T15:42:00.476Z,8.40
2019-02-18T15:44:31.027Z,8.40
2019-02-18T15:47:00.703Z,8.20
2019-02-18T15:49:30.514Z,8.10
2019-02-18T15:52:00.251Z,8.00
2019-02-18T15:54:29.964Z,7.80
2019-02-18T15:56:59.760Z,7.70
2019-02-18T15:59:29.421Z,7.60
2019-02-18T16:01:59.567Z,7.40
2019-02-18T16:04:29.257Z,7.30
2019-02-18T16:06:58.898Z,7.20
2019-02-18T16:09:28.588Z,7.10
2019-02-18T16:11:59.109Z,7.00
2019-02-18T16:14:28.850Z,6.90
2019-02-18T16:16:58.559Z,6.80
2019-02-18T16:19:28.266Z,6.70
2019-02-18T16:21:57.982Z,6.60
2019-02-18T16:24:27.648Z,6.60
2019-02-18T16:26:58.193Z,6.50
2019-02-18T16:29:27.915Z,6.50
2019-02-18T16:31:57.658Z,6.40
2019-02-18T16:34:27.350Z,6.40
2019-02-18T16:36:57.007Z,6.30
2019-02-18T16:39:27.006Z,6.30
2019-02-18T16:41:57.644Z,6.20
2019-02-18T16:44:27.387Z,6.20
2019-02-18T16:46:57.062Z,6.10
2019-02-18T16:49:26.829Z,6.00
2019-02-18T16:51:56.537Z,6.00
2019-02-18T16:54:26.633Z,5.90
2019-02-18T16:56:56.799Z,5.90
2019-02-18T16:59:26.461Z,5.80
2019-02-18T17:01:56.250Z,5.80
2019-02-18T17:04:27.339Z,5.80
2019-02-18T17:06:57.478Z,5.70
2019-02-18T17:09:27.284Z,5.70
2019-02-18T17:11:56.944Z,5.60
2019-02-18T17:14:26.621Z,5.60
2019-02-18T17:16:57.331Z,5.60
2019-02-18T17:19:26.994Z,5.50
2019-02-18T17:21:57.196Z,5.40
2019-02-18T17:24:26.888Z,5.30
2019-02-18T17:26:56.598Z,5.20
2019-02-18T17:29:26.350Z,5.20
2019-02-18T17:31:56.028Z,5.10
2019-02-18T17:34:27.671Z,5.00
2019-02-18T17:36:57.122Z,4.90
2019-02-18T17:39:26.778Z,4.80
2019-02-18T17:41:56.466Z,4.70
2019-02-18T17:44:26.194Z,4.60
2019-02-18T17:46:55.879Z,4.60
2019-02-18T17:49:25.544Z,4.50
2019-02-18T17:51:55.808Z,4.40
2019-02-18T17:54:25.527Z,4.30
2019-02-18T17:56:55.227Z,4.20
2019-02-18T17:59:24.940Z,4.20
2019-02-18T18:01:54.598Z,4.10
2019-02-18T18:04:24.327Z,4.00
2019-02-18T18:06:54.250Z,4.00
2019-02-18T18:09:23.979Z,3.90
2019-02-18T18:11:58.022Z,3.80
2019-02-18T18:14:28.176Z,3.80
2019-02-18T18:16:57.867Z,3.80
2019-02-18T18:19:29.497Z,3.70
2019-02-18T18:21:59.192Z,3.70
2019-02-18T18:24:28.982Z,3.60
2019-02-18T18:26:58.943Z,3.60
2019-02-18T18:29:28.712Z,3.50
2019-02-18T18:31:58.455Z,3.50
2019-02-18T18:34:28.800Z,3.50
2019-02-18T18:36:58.437Z,3.40
2019-02-18T18:39:28.253Z,3.40
2019-02-18T18:41:57.955Z,3.30
2019-02-18T18:44:27.665Z,3.20
2019-02-18T18:46:57.415Z,3.20
2019-02-18T18:49:27.139Z,3.10
2019-02-18T18:51:58.737Z,3.10
2019-02-18T18:54:28.460Z,3.00
2019-02-18T18:56:58.339Z,3.00
2019-02-18T18:59:28.583Z,3.00
2019-02-18T19:01:58.552Z,3.00
2019-02-18T19:04:28.261Z,2.90
2019-02-18T19:06:58.001Z,2.90
2019-02-18T19:09:27.746Z,2.80
2019-02-18T19:11:57.450Z,2.90
2019-02-18T19:14:27.909Z,2.80
2019-02-18T19:16:57.646Z,2.90
2019-02-18T19:19:27.537Z,2.90
2019-02-18T19:21:57.343Z,2.90
2019-02-18T19:24:27.175Z,2.90
2019-02-18T19:26:56.894Z,2.90
2019-02-18T19:29:27.167Z,2.90
2019-02-18T19:31:56.916Z,2.90
2019-02-18T19:34:26.617Z,2.90
2019-02-18T19:36:56.340Z,2.80
2019-02-18T19:39:26.060Z,2.80
2019-02-18T19:41:56.248Z,2.80
2019-02-18T19:44:26.002Z,2.80
2019-02-18T19:46:55.686Z,2.90
2019-02-18T19:49:25.393Z,2.90
2019-02-18T19:51:55.093Z,3.00
2019-02-18T19:54:24.765Z,3.00
2019-02-18T19:56:54.813Z,3.10
2019-02-18T19:59:24.561Z,3.10
2019-02-18T20:01:54.294Z,3.10
2019-02-18T20:04:23.967Z,3.10
2019-02-18T20:06:53.675Z,3.10
2019-02-18T20:09:23.536Z,3.10
2019-02-18T20:11:53.216Z,3.00
2019-02-18T20:14:22.898Z,3.00
2019-02-18T20:16:52.652Z,3.00
2019-02-18T20:19:22.328Z,3.00
2019-02-18T20:21:52.024Z,2.90
2019-02-18T20:24:21.883Z,3.00
2019-02-18T20:26:51.608Z,3.00
2019-02-18T20:29:21.298Z,3.00
2019-02-18T20:31:51.148Z,3.00
2019-02-18T20:34:20.820Z,2.90
2019-02-18T20:36:50.617Z,3.00
2019-02-18T20:39:20.310Z,3.00
2019-02-18T20:41:51.497Z,3.00
2019-02-18T20:44:21.400Z,3.00
2019-02-18T20:47:21.474Z,3.00
2019-02-18T20:49:51.260Z,3.00
2019-02-18T20:52:20.962Z,3.00
2019-02-18T20:54:51.076Z,3.10
2019-02-18T20:57:20.790Z,3.10
2019-02-18T20:59:50.885Z,3.20
2019-02-18T21:02:20.613Z,3.30
2019-02-18T21:04:50.339Z,3.20
2019-02-18T21:07:20.023Z,3.20
2019-02-18T21:09:49.737Z,3.20
2019-02-18T21:12:20.165Z,3.20
2019-02-18T21:14:55.750Z,3.20
2019-02-18T21:17:25.426Z,3.10
2019-02-18T21:19:55.219Z,3.10
2019-02-18T21:22:24.911Z,3.10
2019-02-18T21:24:54.679Z,3.00
2019-02-18T21:27:24.600Z,3.00
2019-02-18T21:29:55.619Z,3.10
2019-02-18T21:32:25.330Z,3.00
2019-02-18T21:34:55.183Z,3.00
2019-02-18T21:37:24.864Z,3.00
2019-02-18T21:39:57.775Z,3.00
2019-02-18T21:42:28.082Z,3.00
2019-02-18T21:44:57.802Z,2.90
2019-02-18T21:47:27.669Z,2.90
2019-02-18T21:49:57.488Z,2.80
2019-02-18T21:52:27.238Z,2.90
2019-02-18T21:54:57.557Z,2.80
2019-02-18T21:57:27.765Z,2.80
2019-02-18T21:59:57.815Z,2.80
2019-02-18T22:02:27.542Z,2.80
2019-02-18T22:04:57.195Z,2.70
2019-02-18T22:07:26.973Z,2.70
2019-02-18T22:09:57.164Z,2.70
2019-02-18T22:12:26.863Z,2.70
2019-02-18T22:14:56.734Z,2.70
2019-02-18T22:17:26.421Z,2.70
2019-02-18T22:19:59.116Z,2.70
2019-02-18T22:22:28.862Z,2.60
2019-02-18T22:24:58.566Z,2.50
2019-02-18T22:27:28.234Z,2.50
2019-02-18T22:29:59.271Z,2.50
2019-02-18T22:32:28.929Z,2.50
2019-02-18T22:35:01.403Z,2.50
2019-02-18T22:37:31.174Z,2.50
2019-02-18T22:40:04.567Z,2.50
2019-02-18T22:42:34.266Z,2.50
2019-02-18T22:45:03.992Z,2.40
2019-02-18T22:47:33.718Z,2.40
2019-02-18T22:50:04.457Z,2.40
2019-02-18T22:52:34.513Z,2.40
2019-02-18T22:55:04.363Z,2.40
2019-02-18T22:57:53.570Z,2.40
2019-02-18T23:01:02.231Z,2.40
2019-02-18T23:03:31.989Z,2.40
2019-02-18T23:06:04.499Z,2.40
2019-02-18T23:08:34.332Z,2.30
2019-02-18T23:11:04.883Z,2.30
2019-02-18T23:13:34.553Z,2.30
2019-02-18T23:16:04.840Z,2.30
2019-02-18T23:18:36.819Z,2.20
2019-02-18T23:21:06.489Z,2.30
2019-02-18T23:23:36.801Z,2.20
2019-02-18T23:26:06.454Z,2.20
2019-02-18T23:28:36.275Z,2.20
2019-02-18T23:31:06.030Z,2.20
2019-02-18T23:33:35.715Z,2.30
2019-02-18T23:36:05.438Z,2.30
2019-02-18T23:38:35.189Z,2.30
2019-02-18T23:41:07.900Z,2.30
2019-02-18T23:43:37.580Z,2.20
2019-02-18T23:46:10.355Z,2.30
2019-02-18T23:48:40.043Z,2.20
2019-02-18T23:51:09.811Z,2.20
2019-02-18T23:53:39.548Z,2.10
2019-02-18T23:56:09.231Z,2.10
2019-02-18T23:58:38.943Z,2.10
